Time;durP1;ratioP1;P1;durP2;ratioP2;P2;SDS_P1;SDS_P2;PMS_P1;PMS_P2;Temp;Humidity;BMP_temperature;BMP_pressure;BME280_temperature;BME280_humidity;BME280_pressure;Samples;Min_cycle;Max_cycle;Signal;HPM_P1;HPM_P2
2022/01/21 00:00:26;;;;;;;;;7.33;4.00;;;;;5.84;64.36;103162.78;5078563;28;45245;-73
2022/01/21 00:02:51;;;;;;;;;9.67;5.33;;;;;5.83;63.95;103167.22;5077440;28;46942;-74
2022/01/21 00:05:18;;;;;;;;;9.00;6.00;;;;;5.68;64.56;103149.25;5060907;28;46376;-73
2022/01/21 00:07:44;;;;;;;;;10.33;8.00;;;;;5.63;64.96;103153.84;5060704;28;45441;-71
2022/01/21 00:10:11;;;;;;;;;7.00;7.00;;;;;5.70;64.69;103177.31;5058970;28;45473;-74
2022/01/21 00:12:37;;;;;;;;;9.33;8.00;;;;;5.06;65.18;103079.28;5077373;28;47961;-74
2022/01/21 00:15:10;;;;;;;;;18.33;14.00;;;;;5.59;64.78;103158.34;5061480;28;45358;-72
2022/01/21 00:17:35;;;;;;;;;10.00;9.00;;;;;5.78;64.62;103177.91;5079442;28;45446;-73
2022/01/21 00:30:57;;;;;;;;;8.67;7.33;;;;;5.83;64.37;103137.31;5078803;28;45465;-75
2022/01/21 00:33:22;;;;;;;;;9.00;5.00;;;;;5.45;64.34;103081.47;5060258;28;48222;-73
2022/01/21 00:35:49;;;;;;;;;11.00;7.67;;;;;5.87;64.95;103157.41;5077257;28;45290;-75
2022/01/21 00:38:15;;;;;;;;;8.67;7.00;;;;;5.52;64.47;103106.72;5079094;28;45249;-71
2022/01/21 00:40:41;;;;;;;;;8.00;8.00;;;;;5.45;64.74;103116.63;5078946;28;45518;-73
2022/01/21 00:45:35;;;;;;;;;10.00;9.00;;;;;5.72;64.91;103143.81;5078418;28;45262;-73
2022/01/21 00:48:00;;;;;;;;;9.00;4.00;;;;;5.83;65.05;103145.22;5078216;28;45334;-74
2022/01/21 00:50:25;;;;;;;;;13.67;10.33;;;;;5.86;65.51;103150.41;5078983;28;45516;-72
2022/01/21 00:52:51;;;;;;;;;8.00;8.00;;;;;5.84;64.91;103139.03;5078845;28;48133;-73
2022/01/21 00:55:17;;;;;;;;;11.00;9.33;;;;;5.86;65.14;103155.69;5080718;28;45491;-72
2022/01/21 00:57:42;;;;;;;;;10.00;8.00;;;;;5.23;65.48;103064.66;5076752;28;45523;-72
2022/01/21 01:00:10;;;;;;;;;11.00;11.00;;;;;5.96;65.63;103162.38;5077667;27;45610;-73
2022/01/21 01:02:37;;;;;;;;;10.67;9.00;;;;;5.94;64.87;103154.50;5078505;28;45398;-73
2022/01/21 01:05:07;;;;;;;;;8.67;7.00;;;;;5.99;64.99;103164.91;5076944;28;46388;-71
2022/01/21 01:07:33;;;;;;;;;6.33;6.00;;;;;5.92;64.72;103160.75;5071562;28;45271;-72
2022/01/21 01:10:01;;;;;;;;;10.00;9.33;;;;;5.85;64.85;103168.00;5039003;28;45305;-73
2022/01/21 01:12:41;;;;;;;;;10.00;9.00;;;;;5.73;64.67;103126.19;5069556;28;45537;-75
2022/01/21 01:19:56;;;;;;;;;9.33;8.00;;;;;5.77;64.76;103156.84;5077576;28;45249;-73
2022/01/21 01:20:47;;;;;;;;;7.00;5.67;;;;;5.74;65.25;103157.81;5077864;28;45472;-74
2022/01/21 01:28:34;;;;;;;;;7.00;5.00;;;;;5.85;65.23;103156.59;5078170;28;45529;-71
2022/01/21 01:31:00;;;;;;;;;8.33;8.33;;;;;5.83;64.63;103140.81;5058190;28;45547;-71
2022/01/21 01:33:34;;;;;;;;;7.00;6.33;;;;;5.82;64.68;103149.66;5059065;28;47560;-72
2022/01/21 01:35:59;;;;;;;;;13.00;9.00;;;;;5.80;64.91;103140.91;5077554;28;45574;-73
2022/01/21 01:41:08;;;;;;;;;9.00;7.33;;;;;5.24;64.75;103042.66;5076619;28;45460;-73
2022/01/21 01:51:45;;;;;;;;;9.33;7.00;;;;;5.93;64.39;103144.00;5077561;28;45326;-73
2022/01/21 01:54:14;;;;;;;;;8.67;5.00;;;;;6.03;63.80;103161.25;5076314;28;46723;-72
2022/01/21 01:56:45;;;;;;;;;9.00;9.00;;;;;6.03;64.08;103174.47;5076410;28;45481;-72
2022/01/21 01:59:11;;;;;;;;;9.00;8.00;;;;;5.76;63.93;103126.09;5059140;28;45429;-71
2022/01/21 02:01:37;;;;;;;;;12.33;10.67;;;;;5.84;63.89;103153.09;5079530;28;45380;-74
2022/01/21 02:04:03;;;;;;;;;8.00;5.33;;;;;5.93;65.20;103170.41;5078796;28;45392;-74
2022/01/21 02:06:28;;;;;;;;;12.00;9.00;;;;;5.87;64.16;103178.53;5077175;28;45283;-74
2022/01/21 02:08:54;;;;;;;;;9.00;4.00;;;;;5.71;65.43;103175.53;5075522;28;45339;-71
2022/01/21 02:11:19;;;;;;;;;10.67;6.00;;;;;5.61;65.93;103150.41;5077064;28;45490;-71
2022/01/21 02:13:49;;;;;;;;;8.00;5.67;;;;;5.63;65.33;103165.25;5076692;28;45690;-72
2022/01/21 02:21:45;;;;;;;;;9.67;8.00;;;;;5.53;65.93;103169.13;5057254;28;45383;-73
2022/01/21 02:24:28;;;;;;;;;5.67;5.67;;;;;5.47;65.57;103158.78;5060802;28;47366;-74
2022/01/21 02:26:54;;;;;;;;;7.33;7.33;;;;;4.91;66.17;103071.88;5079703;28;45295;-71
2022/01/21 02:29:31;;;;;;;;;5.33;5.33;;;;;5.36;66.64;103171.47;5061792;28;45986;-71
2022/01/21 02:31:59;;;;;;;;;7.67;7.67;;;;;5.24;66.26;103140.22;5062988;28;45620;-75
2022/01/21 02:34:25;;;;;;;;;9.00;7.67;;;;;5.48;65.92;103169.28;5062745;28;47743;-72
2022/01/21 02:36:51;;;;;;;;;7.33;5.00;;;;;5.50;65.77;103153.41;5063718;28;46389;-73
2022/01/21 02:39:17;;;;;;;;;8.00;5.00;;;;;5.50;65.70;103163.94;5082253;28;45300;-74
2022/01/21 02:41:43;;;;;;;;;7.00;7.00;;;;;5.34;66.53;103154.81;5063806;28;45687;-71
2022/01/21 02:44:13;;;;;;;;;5.00;4.00;;;;;5.36;66.09;103160.91;5080042;28;47344;-71
2022/01/21 02:46:41;;;;;;;;;8.00;7.00;;;;;5.42;66.30;103171.28;5080180;28;45838;-73
2022/01/21 02:49:07;;;;;;;;;5.00;5.00;;;;;5.38;66.08;103144.09;5078471;28;45394;-74
2022/01/21 02:51:32;;;;;;;;;9.00;7.33;;;;;4.91;65.16;103060.47;5078813;28;45472;-71
2022/01/21 02:54:04;;;;;;;;;5.00;5.00;;;;;5.51;65.83;103160.41;5061218;28;47698;-71
2022/01/21 02:56:29;;;;;;;;;8.00;8.00;;;;;5.48;65.91;103150.81;5060545;28;45545;-75
2022/01/21 02:58:55;;;;;;;;;9.33;9.00;;;;;5.46;66.22;103170.25;5079433;28;45499;-71
2022/01/21 03:01:21;;;;;;;;;7.67;5.67;;;;;5.42;66.24;103160.72;5061751;28;45563;-74
2022/01/21 03:03:47;;;;;;;;;7.67;7.67;;;;;5.47;66.08;103166.69;5079404;28;45842;-72
2022/01/21 03:06:15;;;;;;;;;6.67;5.00;;;;;5.37;66.27;103155.56;5078537;28;45351;-71
2022/01/21 03:08:45;;;;;;;;;8.00;7.00;;;;;5.48;65.45;103160.50;5062154;28;45261;-71
2022/01/21 03:11:12;;;;;;;;;9.00;7.00;;;;;5.37;65.81;103147.66;5080439;28;45280;-74
2022/01/21 03:13:42;;;;;;;;;8.67;7.33;;;;;5.30;66.24;103148.78;5081256;28;45646;-70
2022/01/21 03:16:08;;;;;;;;;9.33;8.00;;;;;5.45;66.27;103171.16;5080598;28;45299;-71
2022/01/21 03:18:33;;;;;;;;;10.67;8.00;;;;;4.95;65.79;103085.81;5060831;28;45364;-73
2022/01/21 03:20:59;;;;;;;;;3.33;3.33;;;;;5.39;65.50;103152.88;5078092;28;45525;-72
2022/01/21 03:23:27;;;;;;;;;7.33;5.67;;;;;5.44;66.09;103169.44;5060064;28;48685;-72
2022/01/21 03:25:52;;;;;;;;;8.67;7.33;;;;;5.49;66.26;103172.78;5060948;28;45379;-72
2022/01/21 03:28:17;;;;;;;;;8.00;6.33;;;;;5.40;65.82;103167.78;5077767;28;45315;-74
2022/01/21 03:30:43;;;;;;;;;9.33;7.67;;;;;5.33;65.93;103158.38;5078122;28;45511;-72
2022/01/21 03:33:09;;;;;;;;;7.00;7.00;;;;;5.40;66.36;103178.34;5078857;28;45661;-73
2022/01/21 03:35:35;;;;;;;;;9.33;6.67;;;;;4.77;66.33;103082.00;5077312;28;45492;-72
2022/01/21 03:38:00;;;;;;;;;8.33;8.00;;;;;5.16;66.08;103143.09;5077353;28;45192;-72
2022/01/21 03:40:26;;;;;;;;;8.00;8.00;;;;;5.34;66.10;103176.78;5079122;28;45417;-73
2022/01/21 03:42:51;;;;;;;;;5.00;5.00;;;;;5.31;66.80;103170.75;5078892;28;45859;-71
2022/01/21 03:45:17;;;;;;;;;7.67;4.67;;;;;5.31;66.81;103179.53;5078847;28;45347;-72
2022/01/21 03:47:44;;;;;;;;;15.00;10.00;;;;;5.25;65.99;103173.59;5079002;28;45411;-72
2022/01/21 03:52:45;;;;;;;;;7.00;5.33;;;;;5.25;66.60;103178.88;5079882;28;45687;-73
2022/01/21 03:55:10;;;;;;;;;8.33;4.33;;;;;5.26;66.54;103185.88;5079154;28;45518;-72
2022/01/21 03:57:36;;;;;;;;;9.33;6.33;;;;;5.31;65.94;103178.66;5078734;28;45397;-73
2022/01/21 04:00:05;;;;;;;;;9.67;8.00;;;;;5.39;66.93;103182.75;5078895;28;45320;-75
2022/01/21 04:02:30;;;;;;;;;9.00;8.00;;;;;5.44;66.07;103166.81;5060256;28;47525;-71
2022/01/21 04:04:56;;;;;;;;;7.00;7.00;;;;;5.62;65.91;103178.50;5060202;28;45924;-72
2022/01/21 04:07:21;;;;;;;;;9.67;8.00;;;;;5.62;65.67;103174.09;5059895;28;45239;-72
2022/01/21 04:09:47;;;;;;;;;7.33;5.00;;;;;5.43;66.19;103165.09;5077399;28;45497;-72
2022/01/21 04:12:12;;;;;;;;;8.33;6.33;;;;;5.49;65.56;103184.19;5078504;28;46829;-72
2022/01/21 04:14:38;;;;;;;;;5.67;3.33;;;;;5.40;65.62;103173.94;5060252;28;45362;-72
2022/01/21 04:17:04;;;;;;;;;5.00;4.33;;;;;5.43;66.45;103189.69;5060447;28;45574;-70
2022/01/21 04:19:29;;;;;;;;;11.00;7.00;;;;;5.40;66.20;103192.41;5077573;28;45535;-72
2022/01/21 04:21:55;;;;;;;;;14.67;7.00;;;;;5.29;66.44;103191.03;5055829;28;48349;-72
2022/01/21 04:24:20;;;;;;;;;6.33;3.33;;;;;5.22;67.16;103200.94;5039864;28;46428;-72
2022/01/21 04:26:46;;;;;;;;;7.67;5.33;;;;;5.35;66.73;103196.97;5058475;28;45391;-74
2022/01/21 04:29:11;;;;;;;;;8.67;7.33;;;;;5.20;66.64;103208.00;5058915;28;45551;-72
2022/01/21 04:31:36;;;;;;;;;7.33;7.33;;;;;5.26;67.25;103212.25;5058413;28;45762;-71
2022/01/21 04:34:02;;;;;;;;;6.33;5.00;;;;;4.89;66.66;103124.63;5039743;28;45416;-73
2022/01/21 04:36:27;;;;;;;;;9.00;6.33;;;;;5.34;66.19;103191.75;5062465;28;45316;-73
2022/01/21 04:38:55;;;;;;;;;5.67;4.67;;;;;4.76;66.97;103090.81;5077297;28;45324;-73
2022/01/21 04:49:32;;;;;;;;;9.00;8.33;;;;;5.56;65.42;103200.66;5077758;28;45486;-71
2022/01/21 04:52:04;;;;;;;;;9.00;8.33;;;;;5.28;66.02;103153.25;5077825;28;46054;-72
2022/01/21 04:54:34;;;;;;;;;9.67;9.33;;;;;5.54;65.56;103196.38;5077382;28;45274;-73
2022/01/21 04:57:00;;;;;;;;;6.33;6.33;;;;;5.04;65.35;103091.66;5076177;28;45522;-70
2022/01/21 04:59:26;;;;;;;;;11.00;8.67;;;;;5.58;65.82;103190.06;5077796;28;45240;-72
2022/01/21 05:01:52;;;;;;;;;9.33;7.67;;;;;5.68;65.58;103195.00;5076080;28;47623;-72
2022/01/21 05:04:19;;;;;;;;;7.67;7.67;;;;;5.69;65.29;103191.44;5077963;28;45524;-72
2022/01/21 05:06:44;;;;;;;;;8.00;7.00;;;;;5.69;64.86;103199.34;5077443;28;45438;-73
2022/01/21 05:09:10;;;;;;;;;7.00;4.67;;;;;5.62;65.05;103205.78;5059360;28;45345;-73
2022/01/21 05:11:37;;;;;;;;;8.67;8.00;;;;;5.54;65.45;103186.66;5060244;28;47600;-71
2022/01/21 05:14:19;;;;;;;;;5.67;5.67;;;;;5.71;65.18;103210.72;5077256;28;45509;-72
2022/01/21 05:16:47;;;;;;;;;7.00;4.00;;;;;5.70;65.29;103208.13;5077179;27;45320;-71
2022/01/21 05:19:16;;;;;;;;;7.00;7.00;;;;;5.21;64.57;103129.78;5077348;28;45482;-71
2022/01/21 05:21:48;;;;;;;;;10.00;8.00;;;;;5.60;65.16;103191.72;5076886;28;46108;-72
2022/01/21 05:24:16;;;;;;;;;7.33;7.33;;;;;5.72;65.43;103203.66;5076199;28;45331;-71
2022/01/21 05:26:52;;;;;;;;;10.33;9.33;;;;;4.91;64.36;103050.78;5058879;28;45284;-73
2022/01/21 05:29:18;;;;;;;;;7.33;4.67;;;;;5.78;64.60;103191.09;5060871;28;45244;-71
2022/01/21 05:31:43;;;;;;;;;10.67;5.67;;;;;5.65;64.61;103183.69;5077169;28;46714;-73
2022/01/21 05:34:08;;;;;;;;;7.00;5.00;;;;;5.74;64.67;103207.09;5058865;28;45459;-72
2022/01/21 05:36:37;;;;;;;;;8.33;6.67;;;;;5.76;64.88;103207.91;5075939;28;45382;-71
2022/01/21 05:39:03;;;;;;;;;7.00;5.00;;;;;5.71;64.82;103199.28;5077791;28;45490;-72
2022/01/21 05:41:28;;;;;;;;;7.33;5.00;;;;;5.72;64.32;103216.84;5055421;28;47960;-72
2022/01/21 05:44:08;;;;;;;;;9.00;5.00;;;;;5.67;64.13;103201.19;5056745;28;45292;-72
2022/01/21 05:49:18;;;;;;;;;9.67;8.00;;;;;5.18;64.98;103136.84;5063913;28;45553;-72
2022/01/21 05:51:43;;;;;;;;;5.00;4.00;;;;;5.75;64.56;103228.16;5057994;28;47415;-70
2022/01/21 05:54:10;;;;;;;;;5.00;4.00;;;;;5.63;64.19;103181.09;5058323;28;45261;-71
2022/01/21 05:56:37;;;;;;;;;5.00;5.00;;;;;5.91;64.50;103220.63;5060579;28;45593;-73
2022/01/21 05:59:03;;;;;;;;;3.33;2.33;;;;;5.89;64.19;103237.41;5080614;28;45265;-71
2022/01/21 06:01:29;;;;;;;;;6.00;4.67;;;;;5.85;64.48;103234.00;5061955;28;47484;-73
2022/01/21 06:03:54;;;;;;;;;4.33;3.00;;;;;5.74;64.30;103210.59;5079963;28;45236;-72
2022/01/21 06:06:20;;;;;;;;;5.33;4.33;;;;;5.77;64.44;103217.56;5062981;28;45340;-72
2022/01/21 06:08:45;;;;;;;;;5.33;4.33;;;;;5.06;64.55;103113.56;5080805;28;45446;-72
2022/01/21 06:11:11;;;;;;;;;6.00;4.67;;;;;5.67;64.64;103230.22;5080900;28;45514;-72
2022/01/21 06:13:37;;;;;;;;;9.33;8.00;;;;;5.58;64.94;103229.66;5080271;28;45171;-73
2022/01/21 06:16:03;;;;;;;;;10.67;5.00;;;;;5.57;65.18;103239.34;5062789;28;45354;-74
2022/01/21 06:18:28;;;;;;;;;7.00;6.00;;;;;4.93;65.16;103156.16;5078347;28;45557;-71
2022/01/21 06:20:53;;;;;;;;;3.00;3.00;;;;;5.47;65.58;103245.84;5079237;28;45493;-74
2022/01/21 06:23:19;;;;;;;;;5.67;5.67;;;;;5.57;65.46;103241.97;5062798;28;45873;-71
2022/01/21 06:25:44;;;;;;;;;6.33;6.33;;;;;5.57;65.42;103228.78;5061525;28;45495;-73
2022/01/21 06:28:11;;;;;;;;;8.67;4.67;;;;;5.63;64.60;103241.78;5079200;28;45568;-72
2022/01/21 06:30:37;;;;;;;;;7.00;4.00;;;;;5.57;65.25;103228.78;5079484;28;48612;-72
2022/01/21 06:33:02;;;;;;;;;4.33;4.33;;;;;5.37;65.50;103221.53;5061884;28;46302;-72
2022/01/21 06:35:28;;;;;;;;;7.33;4.00;;;;;5.34;65.46;103216.34;5079971;28;45545;-72
2022/01/21 06:37:53;;;;;;;;;5.00;5.00;;;;;5.53;65.31;103239.50;5061333;28;45248;-71
2022/01/21 06:40:20;;;;;;;;;4.00;4.00;;;;;5.37;65.83;103225.94;5080249;28;46076;-72
2022/01/21 06:42:47;;;;;;;;;4.33;4.00;;;;;5.26;65.12;103214.88;5061470;28;45338;-70
2022/01/21 06:45:12;;;;;;;;;4.00;4.00;;;;;5.37;65.39;103237.34;5060538;28;45317;-73
2022/01/21 06:47:38;;;;;;;;;9.67;9.00;;;;;4.93;65.57;103151.75;5061893;28;45359;-73
2022/01/21 06:50:04;;;;;;;;;4.00;4.00;;;;;5.45;65.99;103255.59;5061774;28;47612;-74
2022/01/21 06:52:30;;;;;;;;;4.00;4.00;;;;;5.46;65.41;103238.84;5080842;28;45389;-72
2022/01/21 06:54:56;;;;;;;;;8.67;7.67;;;;;5.12;65.63;103168.72;5080270;28;45401;-75
2022/01/21 06:57:22;;;;;;;;;9.67;7.00;;;;;5.43;65.28;103223.13;5080391;28;45423;-74
2022/01/21 06:59:48;;;;;;;;;7.00;5.00;;;;;5.53;65.74;103237.72;5078547;28;46644;-74
2022/01/21 07:02:15;;;;;;;;;3.67;3.67;;;;;5.52;65.43;103257.09;5079778;28;45397;-72
2022/01/21 07:04:40;;;;;;;;;7.33;5.67;;;;;5.24;66.07;103220.22;5079025;28;45511;-75
2022/01/21 07:07:05;;;;;;;;;5.67;3.67;;;;;5.59;65.84;103263.91;5078714;28;45435;-72
2022/01/21 07:09:31;;;;;;;;;10.67;8.00;;;;;5.62;65.30;103269.09;5078640;28;45734;-72
2022/01/21 07:11:56;;;;;;;;;7.00;7.00;;;;;5.63;64.67;103276.09;5078441;28;45241;-73
2022/01/21 07:14:22;;;;;;;;;5.67;5.67;;;;;5.32;65.45;103246.34;5078445;28;45408;-72
2022/01/21 07:16:48;;;;;;;;;4.33;4.33;;;;;4.11;66.09;103048.94;5078599;28;45280;-72
2022/01/21 07:19:15;;;;;;;;;8.00;6.33;;;;;5.47;66.38;103270.44;5070466;28;48269;-71
2022/01/21 07:21:41;;;;;;;;;11.67;6.33;;;;;5.47;65.93;103272.22;5037319;28;46025;-76
2022/01/21 07:24:07;;;;;;;;;7.00;5.00;;;;;5.42;67.02;103287.34;5053283;28;45359;-70
2022/01/21 07:26:32;;;;;;;;;9.00;6.33;;;;;5.17;66.43;103251.16;5074459;28;45279;-73
2022/01/21 07:28:58;;;;;;;;;8.67;7.33;;;;;5.35;65.90;103270.84;5058777;28;45352;-73
2022/01/21 07:31:25;;;;;;;;;7.00;6.33;;;;;5.34;66.48;103269.09;5074605;28;46068;-74
2022/01/21 07:33:50;;;;;;;;;9.00;8.00;;;;;5.29;66.76;103270.16;5058517;28;45431;-73
2022/01/21 07:36:15;;;;;;;;;4.00;4.00;;;;;5.35;65.99;103268.19;5058085;28;45889;-71
2022/01/21 07:38:41;;;;;;;;;10.00;6.33;;;;;5.52;66.14;103286.13;5058869;28;47406;-74
2022/01/21 07:41:07;;;;;;;;;9.67;7.33;;;;;5.62;66.14;103290.22;5056596;28;45546;-73
2022/01/21 07:43:32;;;;;;;;;8.33;5.33;;;;;5.19;66.55;103215.06;5073164;28;45386;-71
2022/01/21 07:45:57;;;;;;;;;5.00;4.00;;;;;5.40;65.88;103276.81;5058241;28;45413;-72
2022/01/21 07:48:23;;;;;;;;;11.33;8.00;;;;;5.55;66.12;103309.78;5059065;28;45320;-73
2022/01/21 07:50:48;;;;;;;;;11.00;11.00;;;;;5.38;66.57;103269.88;5074074;28;45232;-73
2022/01/21 07:53:14;;;;;;;;;9.67;8.00;;;;;5.67;66.05;103305.91;5058787;28;45414;-73
2022/01/21 07:55:39;;;;;;;;;8.00;8.00;;;;;5.47;65.50;103264.31;5056607;28;45745;-73
2022/01/21 07:58:05;;;;;;;;;9.00;5.00;;;;;5.83;65.57;103324.75;5057453;28;46463;-73
2022/01/21 08:00:31;;;;;;;;;7.00;7.00;;;;;5.85;65.37;103313.22;5058613;28;45317;-73
2022/01/21 08:02:57;;;;;;;;;10.67;10.67;;;;;5.75;65.77;103307.34;5074337;28;45255;-72
2022/01/21 08:05:23;;;;;;;;;8.00;5.67;;;;;5.75;65.87;103307.34;5056479;28;45467;-72
2022/01/21 08:07:48;;;;;;;;;11.67;9.33;;;;;5.83;65.21;103325.59;5057798;28;48306;-71
2022/01/21 08:10:14;;;;;;;;;7.67;7.67;;;;;5.84;65.41;103327.31;5073852;28;45477;-71
2022/01/21 08:12:39;;;;;;;;;16.67;14.00;;;;;5.74;65.99;103308.28;5057870;28;45391;-73
2022/01/21 08:15:05;;;;;;;;;15.67;11.33;;;;;5.98;64.99;103326.88;5047903;28;45454;-73
2022/01/21 08:17:31;;;;;;;;;15.00;11.67;;;;;6.08;64.21;103333.59;5054397;28;47614;-70
2022/01/21 08:19:57;;;;;;;;;9.00;8.00;;;;;5.96;64.50;103341.91;5070433;28;46341;-70
2022/01/21 08:22:23;;;;;;;;;15.00;13.33;;;;;5.76;65.95;103322.28;5056580;28;45506;-72
2022/01/21 08:24:48;;;;;;;;;7.67;7.67;;;;;5.59;65.47;103306.13;5057599;28;45584;-74
2022/01/21 08:27:14;;;;;;;;;7.00;5.33;;;;;5.83;65.30;103330.88;5073665;28;45835;-72
2022/01/21 08:29:40;;;;;;;;;12.00;11.33;;;;;5.89;65.15;103327.16;5058498;28;45286;-73
2022/01/21 08:32:07;;;;;;;;;13.00;8.00;;;;;5.75;65.20;103327.63;5056278;28;45555;-71
2022/01/21 08:34:34;;;;;;;;;8.33;8.33;;;;;5.73;65.59;103332.94;5073729;28;45456;-72
2022/01/21 08:37:01;;;;;;;;;14.67;11.00;;;;;5.61;66.59;103319.28;5057553;28;45612;-73
2022/01/21 08:39:26;;;;;;;;;14.33;11.33;;;;;5.43;66.39;103270.59;5059067;28;45225;-73
2022/01/21 08:41:51;;;;;;;;;13.67;12.00;;;;;5.62;65.86;103305.19;5076964;27;45564;-71
2022/01/21 08:44:17;;;;;;;;;15.00;9.33;;;;;5.87;65.94;103331.66;5058319;28;45550;-72
2022/01/21 08:46:43;;;;;;;;;12.33;10.00;;;;;5.83;65.25;103319.47;5056960;28;47490;-72
2022/01/21 08:49:08;;;;;;;;;12.67;11.00;;;;;5.93;65.23;103334.09;5057655;27;45537;-74
2022/01/21 08:51:47;;;;;;;;;13.33;12.00;;;;;5.96;65.17;103320.78;5058134;28;45577;-73
2022/01/21 08:54:14;;;;;;;;;18.67;14.67;;;;;6.06;65.32;103335.44;5058220;28;45399;-73
2022/01/21 08:56:40;;;;;;;;;10.67;9.67;;;;;6.12;64.86;103332.56;5072631;28;47830;-72
2022/01/21 08:59:05;;;;;;;;;12.33;9.00;;;;;6.30;64.78;103331.94;5057684;28;45216;-73
2022/01/21 09:01:30;;;;;;;;;10.00;10.00;;;;;6.20;64.01;103303.25;5057724;28;45197;-72
2022/01/21 09:03:56;;;;;;;;;12.67;9.67;;;;;6.29;64.32;103338.16;5058181;28;45563;-73
2022/01/21 09:06:23;;;;;;;;;9.67;7.33;;;;;5.69;64.40;103249.50;5057949;28;46244;-70
2022/01/21 09:08:48;;;;;;;;;16.00;9.67;;;;;6.05;64.57;103305.53;5058593;28;45493;-73
2022/01/21 09:11:14;;;;;;;;;15.00;9.00;;;;;6.18;65.35;103336.78;5056949;28;45432;-72
2022/01/21 09:13:41;;;;;;;;;12.00;11.00;;;;;6.20;65.57;103334.94;5057472;28;45214;-74
2022/01/21 09:16:07;;;;;;;;;8.67;8.67;;;;;5.85;65.11;103264.84;5073731;27;46634;-73
2022/01/21 09:18:45;;;;;;;;;14.33;13.33;;;;;6.25;65.20;103330.38;5056272;28;45409;-73
2022/01/21 09:21:12;;;;;;;;;15.00;10.00;;;;;6.18;64.03;103305.06;5057269;28;45469;-76
2022/01/21 09:23:37;;;;;;;;;11.00;9.33;;;;;6.26;64.62;103334.75;5056225;28;45318;-73
2022/01/21 09:26:02;;;;;;;;;11.33;11.33;;;;;6.31;64.49;103333.66;5057601;28;45381;-74
2022/01/21 09:28:28;;;;;;;;;13.00;11.00;;;;;6.38;64.42;103326.38;5071645;28;46041;-73
2022/01/21 09:30:56;;;;;;;;;14.67;10.67;;;;;6.49;63.64;103326.03;5056216;28;45317;-72
2022/01/21 09:33:21;;;;;;;;;18.00;9.67;;;;;6.53;63.70;103323.22;5054206;28;45362;-76
2022/01/21 09:35:47;;;;;;;;;15.67;10.33;;;;;6.65;63.21;103332.50;5070690;28;47231;-73
2022/01/21 09:38:12;;;;;;;;;12.00;11.00;;;;;6.76;62.89;103369.09;5047840;28;45489;-77
2022/01/21 09:40:44;;;;;;;;;10.00;9.00;;;;;6.78;62.88;103359.31;5047084;28;45356;-75
2022/01/21 09:43:10;;;;;;;;;11.33;10.67;;;;;6.64;62.47;103341.34;5050741;28;45374;-75
2022/01/21 09:45:36;;;;;;;;;13.00;12.67;;;;;6.95;62.74;103372.81;5069839;28;45544;-74
2022/01/21 09:48:05;;;;;;;;;11.33;10.00;;;;;6.98;62.45;103368.25;5052705;28;45470;-74
2022/01/21 09:50:32;;;;;;;;;11.00;11.00;;;;;6.38;62.43;103279.69;5036199;28;45535;-75
2022/01/21 09:52:58;;;;;;;;;12.00;11.00;;;;;7.06;62.12;103388.28;5042059;28;46274;-74
2022/01/21 09:55:24;;;;;;;;;10.33;10.33;;;;;7.00;61.87;103406.09;5054406;28;48343;-78
2022/01/21 09:57:52;;;;;;;;;13.00;9.00;;;;;6.81;61.91;103394.47;5066777;28;45213;-75
2022/01/21 10:00:20;;;;;;;;;13.33;11.00;;;;;6.20;62.34;103296.19;5075949;28;45308;-73
2022/01/21 10:02:48;;;;;;;;;17.67;13.33;;;;;6.87;62.72;103396.91;5072430;27;45614;-73
2022/01/21 10:05:13;;;;;;;;;11.00;11.00;;;;;6.63;62.44;103364.28;5056402;28;47667;-75
2022/01/21 10:07:45;;;;;;;;;10.67;10.00;;;;;6.74;63.08;103397.38;5055829;28;45223;-72
2022/01/21 10:10:10;;;;;;;;;13.33;12.00;;;;;6.65;63.08;103395.94;5055066;28;45656;-77
2022/01/21 10:12:44;;;;;;;;;13.00;13.00;;;;;6.64;64.07;103386.28;5051353;28;46562;-74
2022/01/21 10:15:11;;;;;;;;;17.67;14.33;;;;;6.88;63.57;103403.91;5076405;28;46286;-72
2022/01/21 10:17:37;;;;;;;;;22.00;20.33;;;;;6.88;62.75;103372.19;5069621;27;45638;-73
2022/01/21 10:20:18;;;;;;;;;15.33;10.33;;;;;7.13;62.69;103409.16;5069191;28;45496;-72
2022/01/21 10:23:10;;;;;;;;;17.33;12.33;;;;;7.10;61.66;103403.13;5047066;28;45430;-75
2022/01/21 10:25:40;;;;;;;;;15.33;13.67;;;;;7.17;62.00;103404.63;5042163;28;45500;-72
2022/01/21 10:28:11;;;;;;;;;16.67;12.67;;;;;7.24;62.05;103390.25;5056479;28;45363;-72
2022/01/21 10:30:38;;;;;;;;;13.67;12.67;;;;;6.96;61.69;103321.63;5056482;28;45415;-73
2022/01/21 10:33:24;;;;;;;;;17.67;14.33;;;;;7.42;60.89;103408.09;5054546;28;45527;-72
2022/01/21 10:36:04;;;;;;;;;13.00;11.67;;;;;6.89;61.09;103349.25;5055116;28;46448;-73
2022/01/21 10:38:31;;;;;;;;;13.00;12.00;;;;;7.01;61.70;103391.97;5055804;28;45548;-71
2022/01/21 10:41:07;;;;;;;;;13.33;13.33;;;;;7.02;61.98;103403.41;5059945;28;45572;-71
2022/01/21 10:43:33;;;;;;;;;12.33;10.67;;;;;7.06;61.72;103390.94;5048540;28;45473;-73
2022/01/21 10:46:00;;;;;;;;;12.33;11.33;;;;;7.23;61.78;103394.69;5052737;28;45490;-74
2022/01/21 10:48:31;;;;;;;;;10.00;9.33;;;;;6.84;61.30;103322.09;5069211;27;46282;-75
2022/01/21 10:51:38;;;;;;;;;10.00;9.00;;;;;7.29;61.96;103404.16;5055661;28;45397;-73
2022/01/21 10:54:14;;;;;;;;;15.33;12.67;;;;;6.95;62.06;103384.25;5038235;28;45371;-74
2022/01/21 10:56:40;;;;;;;;;13.67;11.67;;;;;7.18;61.38;103408.97;5049626;28;46533;-74
2022/01/21 10:59:05;;;;;;;;;11.67;10.67;;;;;7.10;62.47;103388.13;5045216;28;45486;-70
2022/01/21 11:01:30;;;;;;;;;12.00;12.00;;;;;7.06;62.11;103390.94;5052143;28;45386;-74
2022/01/21 11:04:10;;;;;;;;;14.33;13.33;;;;;7.05;62.00;103381.28;5053235;28;45450;-72
2022/01/21 11:06:49;;;;;;;;;16.67;10.33;;;;;7.25;61.39;103389.34;5057826;28;46648;-73
2022/01/21 11:09:26;;;;;;;;;20.00;14.33;;;;;7.20;61.97;103356.88;5050604;28;45763;-73
2022/01/21 11:12:09;;;;;;;;;11.00;11.00;;;;;7.59;61.45;103389.75;5046458;28;45478;-73
2022/01/21 11:14:35;;;;;;;;;15.00;13.67;;;;;7.65;60.93;103390.44;5055196;28;45659;-74
2022/01/21 11:17:15;;;;;;;;;15.00;13.33;;;;;7.49;60.36;103375.16;5053996;28;46950;-72
2022/01/21 11:20:00;;;;;;;;;14.33;11.00;;;;;7.42;60.04;103372.81;5066850;28;45462;-71
2022/01/21 11:22:26;;;;;;;;;10.67;10.67;;;;;7.37;61.20;103385.34;5059785;28;45474;-74
2022/01/21 11:24:51;;;;;;;;;13.67;13.67;;;;;7.43;61.13;103370.09;5050210;28;45317;-75
2022/01/21 11:27:22;;;;;;;;;18.67;12.67;;;;;7.57;61.18;103385.44;5045495;28;47110;-73
2022/01/21 11:29:49;;;;;;;;;17.67;15.00;;;;;7.48;60.61;103359.34;5070103;28;45231;-76
2022/01/21 11:32:19;;;;;;;;;18.00;16.33;;;;;7.42;60.14;103368.38;5080101;28;45241;-74
2022/01/21 11:34:53;;;;;;;;;14.00;12.67;;;;;7.50;61.08;103384.81;5069863;28;45683;-72
2022/01/21 11:37:24;;;;;;;;;15.00;11.67;;;;;7.44;60.83;103386.84;5065780;28;47463;-75
2022/01/21 11:39:50;;;;;;;;;12.67;11.67;;;;;7.19;60.78;103340.13;5080012;27;45375;-73
2022/01/21 11:42:18;;;;;;;;;21.00;20.00;;;;;7.31;61.00;103346.75;5061444;28;45385;-74
2022/01/21 11:44:51;;;;;;;;;10.33;10.33;;;;;7.58;61.05;103380.06;5060739;28;45567;-76
2022/01/21 11:47:29;;;;;;;;;15.67;15.67;;;;;7.51;60.82;103377.75;5059215;28;46895;-74
2022/01/21 11:49:58;;;;;;;;;14.33;14.33;;;;;7.27;61.91;103366.31;5057565;28;45266;-73
2022/01/21 11:52:24;;;;;;;;;15.00;14.00;;;;;7.40;62.00;103377.28;5058621;28;45654;-75
2022/01/21 11:54:51;;;;;;;;;19.67;14.33;;;;;7.34;62.09;103351.91;5058615;28;45282;-79
2022/01/21 11:57:27;;;;;;;;;17.33;15.00;;;;;7.44;61.42;103332.13;5056145;28;47504;-77
2022/01/21 12:00:02;;;;;;;;;17.00;15.00;;;;;6.79;61.02;103202.41;5076251;28;45409;-74
2022/01/21 12:02:31;;;;;;;;;22.67;18.33;;;;;7.67;60.30;103340.94;5073593;28;45399;-74
2022/01/21 12:05:10;;;;;;;;;14.67;12.00;;;;;7.72;60.73;103349.56;5070489;28;45552;-73
2022/01/21 12:07:44;;;;;;;;;16.67;15.33;;;;;7.74;60.51;103353.84;5078733;28;45966;-72
2022/01/21 12:10:14;;;;;;;;;16.00;16.00;;;;;7.88;60.37;103377.16;5057459;28;45549;-75
2022/01/21 12:12:45;;;;;;;;;18.67;14.67;;;;;7.98;60.27;103365.22;5065677;28;45325;-73
2022/01/21 12:20:58;;;;;;;;;18.00;15.67;;;;;8.15;59.50;103344.19;5079300;28;45392;-75
2022/01/21 12:23:25;;;;;;;;;12.00;11.00;;;;;8.14;58.60;103337.19;5077071;28;45288;-72
2022/01/21 12:26:09;;;;;;;;;14.67;12.00;;;;;8.26;58.05;103358.81;5077442;28;45497;-73